sensor_id;sensor_type;location;lat;lon;timestamp;pressure;altitude;pressure_sealevel;temperature;humidity
20156;BME280;10238;49.556;10.956;2022-08-21T00:00:51;98316.06;;;16.60;100.00
20156;BME280;10238;49.556;10.956;2022-08-21T00:03:41;98316.50;;;16.64;100.00
20156;BME280;10238;49.556;10.956;2022-08-21T00:06:30;98317.91;;;16.60;100.00
20156;BME280;10238;49.556;10.956;2022-08-21T00:09:20;98316.66;;;16.56;100.00
20156;BME280;10238;49.556;10.956;2022-08-21T00:12:10;98325.09;;;16.53;100.00
20156;BME280;10238;49.556;10.956;2022-08-21T00:15:01;98324.25;;;16.52;100.00
20156;BME280;10238;49.556;10.956;2022-08-21T00:17:52;98320.94;;;16.50;100.00
20156;BME280;10238;49.556;10.956;2022-08-21T00:20:43;98324.81;;;16.48;100.00
20156;BME280;10238;49.556;10.956;2022-08-21T00:23:34;98325.44;;;16.43;100.00
20156;BME280;10238;49.556;10.956;2022-08-21T00:26:24;98317.53;;;16.42;100.00
20156;BME280;10238;49.556;10.956;2022-08-21T00:29:14;98318.53;;;16.41;100.00
20156;BME280;10238;49.556;10.956;2022-08-21T00:32:05;98320.78;;;16.37;100.00
20156;BME280;10238;49.556;10.956;2022-08-21T00:34:55;98321.97;;;16.35;100.00
20156;BME280;10238;49.556;10.956;2022-08-21T00:37:44;98320.31;;;16.34;100.00
20156;BME280;10238;49.556;10.956;2022-08-21T00:40:37;98314.59;;;16.37;100.00
20156;BME280;10238;49.556;10.956;2022-08-21T00:43:32;98312.16;;;16.42;100.00
20156;BME280;10238;49.556;10.956;2022-08-21T00:46:22;98311.31;;;16.41;100.00
20156;BME280;10238;49.556;10.956;2022-08-21T00:49:16;98312.81;;;16.44;100.00
20156;BME280;10238;49.556;10.956;2022-08-21T00:52:11;98311.16;;;16.43;100.00
20156;BME280;10238;49.556;10.956;2022-08-21T00:55:03;98307.59;;;16.42;100.00
20156;BME280;10238;49.556;10.956;2022-08-21T00:57:57;98310.13;;;16.44;100.00
20156;BME280;10238;49.556;10.956;2022-08-21T01:00:51;98313.84;;;16.43;100.00
20156;BME280;10238;49.556;10.956;2022-08-21T01:03:41;98314.28;;;16.46;100.00
20156;BME280;10238;49.556;10.956;2022-08-21T01:06:33;98307.72;;;16.49;100.00
20156;BME280;10238;49.556;10.956;2022-08-21T01:09:23;98314.72;;;16.50;100.00
20156;BME280;10238;49.556;10.956;2022-08-21T01:12:13;98313.09;;;16.49;100.00
20156;BME280;10238;49.556;10.956;2022-08-21T01:15:06;98321.75;;;16.51;100.00
20156;BME280;10238;49.556;10.956;2022-08-21T01:17:57;98324.63;;;16.49;100.00
20156;BME280;10238;49.556;10.956;2022-08-21T01:21:08;98318.44;;;16.49;100.00
20156;BME280;10238;49.556;10.956;2022-08-21T01:23:59;98311.41;;;16.48;100.00
20156;BME280;10238;49.556;10.956;2022-08-21T01:26:50;98314.72;;;16.50;100.00
20156;BME280;10238;49.556;10.956;2022-08-21T01:29:47;98313.47;;;16.46;100.00
20156;BME280;10238;49.556;10.956;2022-08-21T01:32:39;98312.25;;;16.48;100.00
20156;BME280;10238;49.556;10.956;2022-08-21T01:35:29;98315.66;;;16.42;100.00
20156;BME280;10238;49.556;10.956;2022-08-21T01:38:20;98314.28;;;16.46;100.00
20156;BME280;10238;49.556;10.956;2022-08-21T01:41:10;98328.47;;;16.40;100.00
20156;BME280;10238;49.556;10.956;2022-08-21T01:43:59;98319.22;;;16.43;100.00
20156;BME280;10238;49.556;10.956;2022-08-21T01:46:48;98310.78;;;16.46;100.00
20156;BME280;10238;49.556;10.956;2022-08-21T01:49:38;98312.63;;;16.45;100.00
20156;BME280;10238;49.556;10.956;2022-08-21T01:52:28;98314.19;;;16.40;100.00
20156;BME280;10238;49.556;10.956;2022-08-21T01:55:20;98312.16;;;16.42;100.00
20156;BME280;10238;49.556;10.956;2022-08-21T01:58:10;98309.22;;;16.37;100.00
20156;BME280;10238;49.556;10.956;2022-08-21T02:00:59;98308.19;;;16.38;100.00
20156;BME280;10238;49.556;10.956;2022-08-21T02:03:49;98299.75;;;16.41;100.00
20156;BME280;10238;49.556;10.956;2022-08-21T02:06:39;98300.13;;;16.38;100.00
20156;BME280;10238;49.556;10.956;2022-08-21T02:09:31;98290.69;;;16.42;100.00
20156;BME280;10238;49.556;10.956;2022-08-21T02:12:22;98293.03;;;16.45;100.00
20156;BME280;10238;49.556;10.956;2022-08-21T02:15:12;98296.97;;;16.49;100.00
20156;BME280;10238;49.556;10.956;2022-08-21T02:18:05;98297.97;;;16.48;100.00
20156;BME280;10238;49.556;10.956;2022-08-21T02:20:54;98300.44;;;16.43;100.00
20156;BME280;10238;49.556;10.956;2022-08-21T02:23:43;98291.22;;;16.52;100.00
20156;BME280;10238;49.556;10.956;2022-08-21T02:26:33;98290.38;;;16.51;100.00
20156;BME280;10238;49.556;10.956;2022-08-21T02:29:24;98295.56;;;16.53;100.00
20156;BME280;10238;49.556;10.956;2022-08-21T02:32:13;98300.94;;;16.53;100.00
20156;BME280;10238;49.556;10.956;2022-08-21T02:35:04;98298.91;;;16.55;100.00
20156;BME280;10238;49.556;10.956;2022-08-21T02:37:55;98302.38;;;16.55;100.00
20156;BME280;10238;49.556;10.956;2022-08-21T02:40:49;98306.94;;;16.55;100.00
20156;BME280;10238;49.556;10.956;2022-08-21T02:43:39;98299.91;;;16.54;100.00
20156;BME280;10238;49.556;10.956;2022-08-21T02:46:30;98306.75;;;16.56;100.00
20156;BME280;10238;49.556;10.956;2022-08-21T02:49:19;98307.38;;;16.58;100.00
20156;BME280;10238;49.556;10.956;2022-08-21T02:52:08;98306.94;;;16.55;100.00
20156;BME280;10238;49.556;10.956;2022-08-21T02:55:00;98299.50;;;16.57;100.00
20156;BME280;10238;49.556;10.956;2022-08-21T02:57:50;98301.56;;;16.55;100.00
20156;BME280;10238;49.556;10.956;2022-08-21T03:00:39;98302.84;;;16.59;100.00
20156;BME280;10238;49.556;10.956;2022-08-21T03:03:30;98298.50;;;16.58;100.00
20156;BME280;10238;49.556;10.956;2022-08-21T03:06:22;98294.16;;;16.57;100.00
20156;BME280;10238;49.556;10.956;2022-08-21T03:09:12;98299.91;;;16.54;100.00
20156;BME280;10238;49.556;10.956;2022-08-21T03:12:02;98300.75;;;16.54;100.00
20156;BME280;10238;49.556;10.956;2022-08-21T03:14:51;98295.00;;;16.57;100.00
20156;BME280;10238;49.556;10.956;2022-08-21T03:17:41;98299.13;;;16.60;100.00
20156;BME280;10238;49.556;10.956;2022-08-21T03:20:32;98298.13;;;16.61;100.00
20156;BME280;10238;49.556;10.956;2022-08-21T03:23:22;98306.19;;;16.61;100.00
20156;BME280;10238;49.556;10.956;2022-08-21T03:26:11;98307.00;;;16.61;100.00
20156;BME280;10238;49.556;10.956;2022-08-21T03:29:01;98302.25;;;16.63;100.00
20156;BME280;10238;49.556;10.956;2022-08-21T03:31:50;98298.34;;;16.66;100.00
20156;BME280;10238;49.556;10.956;2022-08-21T03:34:41;98300.00;;;16.67;100.00
20156;BME280;10238;49.556;10.956;2022-08-21T03:37:32;98300.84;;;16.67;100.00
20156;BME280;10238;49.556;10.956;2022-08-21T03:40:23;98309.34;;;16.71;100.00
20156;BME280;10238;49.556;10.956;2022-08-21T03:43:13;98301.31;;;16.71;100.00
20156;BME280;10238;49.556;10.956;2022-08-21T03:46:04;98306.28;;;16.74;100.00
20156;BME280;10238;49.556;10.956;2022-08-21T03:48:54;98316.00;;;16.75;100.00
20156;BME280;10238;49.556;10.956;2022-08-21T03:51:43;98318.03;;;16.73;100.00
20156;BME280;10238;49.556;10.956;2022-08-21T03:54:34;98306.28;;;16.74;100.00
20156;BME280;10238;49.556;10.956;2022-08-21T03:57:23;98314.34;;;16.74;100.00
20156;BME280;10238;49.556;10.956;2022-08-21T04:00:15;98324.03;;;16.75;100.00
20156;BME280;10238;49.556;10.956;2022-08-21T04:03:04;98325.06;;;16.74;100.00
20156;BME280;10238;49.556;10.956;2022-08-21T04:05:54;98319.06;;;16.72;100.00
20156;BME280;10238;49.556;10.956;2022-08-21T04:08:43;98314.94;;;16.76;100.00
20156;BME280;10238;49.556;10.956;2022-08-21T04:11:34;98313.31;;;16.75;100.00
20156;BME280;10238;49.556;10.956;2022-08-21T04:14:24;98314.94;;;16.76;100.00
20156;BME280;10238;49.556;10.956;2022-08-21T04:17:14;98313.94;;;16.77;100.00
20156;BME280;10238;49.556;10.956;2022-08-21T04:20:04;98324.03;;;16.75;100.00
20156;BME280;10238;49.556;10.956;2022-08-21T04:22:54;98328.63;;;16.81;100.00
20156;BME280;10238;49.556;10.956;2022-08-21T04:25:44;98336.25;;;16.77;100.00
20156;BME280;10238;49.556;10.956;2022-08-21T04:28:35;98332.75;;;16.77;100.00
20156;BME280;10238;49.556;10.956;2022-08-21T04:31:25;98336.50;;;16.82;100.00
20156;BME280;10238;49.556;10.956;2022-08-21T04:34:16;98340.16;;;16.75;100.00
20156;BME280;10238;49.556;10.956;2022-08-21T04:37:05;98344.69;;;16.74;100.00
20156;BME280;10238;49.556;10.956;2022-08-21T04:39:54;98347.56;;;16.73;100.00
20156;BME280;10238;49.556;10.956;2022-08-21T04:42:49;98357.53;;;16.79;100.00
20156;BME280;10238;49.556;10.956;2022-08-21T04:45:47;98345.13;;;16.78;100.00
20156;BME280;10238;49.556;10.956;2022-08-21T04:48:37;98353.41;;;16.83;100.00
20156;BME280;10238;49.556;10.956;2022-08-21T04:51:31;98348.03;;;16.83;100.00
20156;BME280;10238;49.556;10.956;2022-08-21T04:54:23;98356.38;;;16.88;100.00
20156;BME280;10238;49.556;10.956;2022-08-21T04:57:16;98350.16;;;16.87;100.00
20156;BME280;10238;49.556;10.956;2022-08-21T05:00:08;98360.69;;;16.89;100.00
20156;BME280;10238;49.556;10.956;2022-08-21T05:03:06;98360.97;;;16.94;100.00
20156;BME280;10238;49.556;10.956;2022-08-21T05:05:57;98367.59;;;16.98;100.00
20156;BME280;10238;49.556;10.956;2022-08-21T05:08:49;98372.53;;;16.94;100.00
20156;BME280;10238;49.556;10.956;2022-08-21T05:11:49;98376.31;;;17.00;100.00
20156;BME280;10238;49.556;10.956;2022-08-21T05:14:40;98368.06;;;17.01;100.00
20156;BME280;10238;49.556;10.956;2022-08-21T05:17:30;98375.91;;;17.03;100.00
20156;BME280;10238;49.556;10.956;2022-08-21T05:20:21;98369.31;;;17.05;100.00
20156;BME280;10238;49.556;10.956;2022-08-21T05:23:13;98362.72;;;17.08;100.00
20156;BME280;10238;49.556;10.956;2022-08-21T05:26:06;98359.81;;;17.09;100.00
20156;BME280;10238;49.556;10.956;2022-08-21T05:29:05;98368.47;;;17.05;100.00
20156;BME280;10238;49.556;10.956;2022-08-21T05:31:59;98372.19;;;17.04;100.00
20156;BME280;10238;49.556;10.956;2022-08-21T05:34:49;98365.59;;;17.06;100.00
20156;BME280;10238;49.556;10.956;2022-08-21T05:37:40;98361.91;;;17.07;100.00
20156;BME280;10238;49.556;10.956;2022-08-21T05:40:30;98371.03;;;17.13;100.00
20156;BME280;10238;49.556;10.956;2022-08-21T05:43:20;98369.00;;;17.15;100.00
20156;BME280;10238;49.556;10.956;2022-08-21T05:46:09;98364.03;;;17.18;100.00
20156;BME280;10238;49.556;10.956;2022-08-21T05:48:59;98364.47;;;17.22;100.00
20156;BME280;10238;49.556;10.956;2022-08-21T05:51:48;98372.09;;;17.18;100.00
20156;BME280;10238;49.556;10.956;2022-08-21T05:54:44;98369.47;;;17.25;100.00
20156;BME280;10238;49.556;10.956;2022-08-21T05:57:34;98370.53;;;17.31;100.00
20156;BME280;10238;49.556;10.956;2022-08-21T06:00:24;98370.56;;;17.37;100.00
20156;BME280;10238;49.556;10.956;2022-08-21T06:03:16;98380.91;;;17.40;100.00
20156;BME280;10238;49.556;10.956;2022-08-21T06:06:06;98365.28;;;17.44;100.00
20156;BME280;10238;49.556;10.956;2022-08-21T06:08:56;98368.41;;;17.47;100.00
20156;BME280;10238;49.556;10.956;2022-08-21T06:11:46;98370.06;;;17.55;100.00
20156;BME280;10238;49.556;10.956;2022-08-21T06:14:37;98375.25;;;17.56;100.00
20156;BME280;10238;49.556;10.956;2022-08-21T06:17:27;98368.88;;;17.64;100.00
20156;BME280;10238;49.556;10.956;2022-08-21T06:20:16;98376.75;;;17.65;100.00
20156;BME280;10238;49.556;10.956;2022-08-21T06:23:06;98377.16;;;17.62;100.00
20156;BME280;10238;49.556;10.956;2022-08-21T06:25:56;98378.84;;;17.70;100.00
20156;BME280;10238;49.556;10.956;2022-08-21T06:28:47;98380.09;;;17.67;100.00
20156;BME280;10238;49.556;10.956;2022-08-21T06:31:39;98378.66;;;17.71;100.00
20156;BME280;10238;49.556;10.956;2022-08-21T06:34:29;98378.91;;;17.76;100.00
20156;BME280;10238;49.556;10.956;2022-08-21T06:37:20;98388.88;;;17.82;100.00
20156;BME280;10238;49.556;10.956;2022-08-21T06:40:11;98380.19;;;17.87;100.00
20156;BME280;10238;49.556;10.956;2022-08-21T06:43:16;98398.00;;;17.94;100.00
20156;BME280;10238;49.556;10.956;2022-08-21T06:46:07;98389.78;;;18.02;100.00
20156;BME280;10238;49.556;10.956;2022-08-21T06:48:58;98393.31;;;18.03;100.00
20156;BME280;10238;49.556;10.956;2022-08-21T06:52:08;98386.06;;;18.03;100.00
20156;BME280;10238;49.556;10.956;2022-08-21T06:54:57;98388.13;;;18.01;100.00
20156;BME280;10238;49.556;10.956;2022-08-21T06:57:47;98386.91;;;18.10;100.00
20156;BME280;10238;49.556;10.956;2022-08-21T07:00:46;98393.97;;;18.11;100.00
20156;BME280;10238;49.556;10.956;2022-08-21T07:03:40;98396.66;;;18.18;100.00
20156;BME280;10238;49.556;10.956;2022-08-21T07:06:29;98396.06;;;18.22;100.00
20156;BME280;10238;49.556;10.956;2022-08-21T07:09:21;98388.22;;;18.27;100.00
20156;BME280;10238;49.556;10.956;2022-08-21T07:12:13;98392.44;;;18.36;100.00
20156;BME280;10238;49.556;10.956;2022-08-21T07:15:06;98391.38;;;18.37;100.00
20156;BME280;10238;49.556;10.956;2022-08-21T07:18:02;98392.63;;;18.41;100.00
20156;BME280;10238;49.556;10.956;2022-08-21T07:20:54;98385.00;;;18.45;100.00
20156;BME280;10238;49.556;10.956;2022-08-21T07:23:47;98390.38;;;18.51;100.00
20156;BME280;10238;49.556;10.956;2022-08-21T07:26:37;98392.88;;;18.59;100.00
20156;BME280;10238;49.556;10.956;2022-08-21T07:29:28;98394.78;;;18.65;100.00
20156;BME280;10238;49.556;10.956;2022-08-21T07:32:17;98390.63;;;18.69;100.00
20156;BME280;10238;49.556;10.956;2022-08-21T07:35:10;98385.47;;;18.74;100.00
20156;BME280;10238;49.556;10.956;2022-08-21T07:38:05;98390.84;;;18.81;100.00
20156;BME280;10238;49.556;10.956;2022-08-21T07:40:56;98384.00;;;18.85;100.00
20156;BME280;10238;49.556;10.956;2022-08-21T07:43:47;98375.72;;;18.86;100.00
20156;BME280;10238;49.556;10.956;2022-08-21T07:46:39;98376.75;;;18.85;100.00
20156;BME280;10238;49.556;10.956;2022-08-21T07:49:32;98377.41;;;18.87;100.00
20156;BME280;10238;49.556;10.956;2022-08-21T07:52:21;98370.94;;;18.95;100.00
20156;BME280;10238;49.556;10.956;2022-08-21T07:55:21;98373.88;;;19.00;100.00
20156;BME280;10238;49.556;10.956;2022-08-21T07:58:10;98373.88;;;19.00;100.00
20156;BME280;10238;49.556;10.956;2022-08-21T08:01:00;98368.91;;;19.03;100.00
20156;BME280;10238;49.556;10.956;2022-08-21T08:03:50;98368.91;;;19.03;100.00
20156;BME280;10238;49.556;10.956;2022-08-21T08:06:40;98368.06;;;19.03;100.00
20156;BME280;10238;49.556;10.956;2022-08-21T08:09:29;98365.59;;;19.08;100.00
20156;BME280;10238;49.556;10.956;2022-08-21T08:12:20;98373.66;;;19.14;100.00
20156;BME280;10238;49.556;10.956;2022-08-21T08:15:14;98370.94;;;19.14;100.00
20156;BME280;10238;49.556;10.956;2022-08-21T08:18:04;98361.81;;;19.15;100.00
20156;BME280;10238;49.556;10.956;2022-08-21T08:20:53;98359.34;;;19.20;100.00
20156;BME280;10238;49.556;10.956;2022-08-21T08:23:42;98365.16;;;19.31;100.00
20156;BME280;10238;49.556;10.956;2022-08-21T08:26:32;98356.44;;;19.35;100.00
20156;BME280;10238;49.556;10.956;2022-08-21T08:29:23;98355.81;;;19.46;100.00
20156;BME280;10238;49.556;10.956;2022-08-21T08:32:14;98353.69;;;19.61;100.00
20156;BME280;10238;49.556;10.956;2022-08-21T08:35:05;98354.28;;;19.70;100.00
20156;BME280;10238;49.556;10.956;2022-08-21T08:37:55;98356.72;;;19.91;100.00
20156;BME280;10238;49.556;10.956;2022-08-21T08:40:51;98343.00;;;19.99;100.00
20156;BME280;10238;49.556;10.956;2022-08-21T08:43:49;98331.75;;;20.02;100.00
20156;BME280;10238;49.556;10.956;2022-08-21T08:47:00;98343.78;;;20.12;100.00
20156;BME280;10238;49.556;10.956;2022-08-21T08:50:08;98340.19;;;20.25;100.00
20156;BME280;10238;49.556;10.956;2022-08-21T08:53:12;98336.34;;;20.45;100.00
20156;BME280;10238;49.556;10.956;2022-08-21T08:56:05;98334.53;;;20.64;100.00
20156;BME280;10238;49.556;10.956;2022-08-21T08:59:00;98334.53;;;20.88;100.00
20156;BME280;10238;49.556;10.956;2022-08-21T09:01:52;98333.59;;;21.07;100.00
20156;BME280;10238;49.556;10.956;2022-08-21T09:04:44;98333.84;;;21.24;100.00
20156;BME280;10238;49.556;10.956;2022-08-21T09:07:40;98332.84;;;21.43;100.00
20156;BME280;10238;49.556;10.956;2022-08-21T09:10:48;98329.66;;;21.64;100.00
20156;BME280;10238;49.556;10.956;2022-08-21T09:13:55;98323.34;;;21.70;100.00
20156;BME280;10238;49.556;10.956;2022-08-21T09:16:58;98323.16;;;21.90;100.00
20156;BME280;10238;49.556;10.956;2022-08-21T09:19:59;98316.16;;;22.00;100.00
20156;BME280;10238;49.556;10.956;2022-08-21T09:23:10;98322.59;;;22.17;100.00
20156;BME280;10238;49.556;10.956;2022-08-21T09:30:08;98323.50;;;22.41;100.00
20156;BME280;10238;49.556;10.956;2022-08-21T09:33:00;98317.56;;;22.21;100.00
20156;BME280;10238;49.556;10.956;2022-08-21T09:35:53;98315.13;;;22.31;100.00
20156;BME280;10238;49.556;10.956;2022-08-21T09:38:53;98305.38;;;22.41;100.00
20156;BME280;10238;49.556;10.956;2022-08-21T09:41:44;98306.41;;;22.40;100.00
20156;BME280;10238;49.556;10.956;2022-08-21T09:44:37;98308.56;;;22.38;100.00
20156;BME280;10238;49.556;10.956;2022-08-21T09:47:31;98309.25;;;22.63;100.00
20156;BME280;10238;49.556;10.956;2022-08-21T09:50:25;98311.53;;;22.89;100.00
20156;BME280;10238;49.556;10.956;2022-08-21T09:53:21;98302.19;;;22.85;100.00
20156;BME280;10238;49.556;10.956;2022-08-21T09:56:28;98297.28;;;22.82;100.00
20156;BME280;10238;49.556;10.956;2022-08-21T09:59:36;98297.03;;;22.95;100.00
20156;BME280;10238;49.556;10.956;2022-08-21T10:02:32;98295.91;;;23.38;100.00
20156;BME280;10238;49.556;10.956;2022-08-21T10:05:27;98284.75;;;23.62;100.00
20156;BME280;10238;49.556;10.956;2022-08-21T10:08:19;98286.34;;;23.98;100.00
20156;BME280;10238;49.556;10.956;2022-08-21T10:11:12;98279.38;;;24.30;100.00
20156;BME280;10238;49.556;10.956;2022-08-21T10:14:21;98282.44;;;24.78;100.00
20156;BME280;10238;49.556;10.956;2022-08-21T10:17:22;98278.09;;;25.15;100.00
20156;BME280;10238;49.556;10.956;2022-08-21T10:20:20;98275.75;;;25.57;100.00
20156;BME280;10238;49.556;10.956;2022-08-21T10:23:34;98274.88;;;25.94;100.00
20156;BME280;10238;49.556;10.956;2022-08-21T10:26:42;98274.69;;;26.22;100.00
20156;BME280;10238;49.556;10.956;2022-08-21T10:29:51;98274.47;;;26.55;100.00
20156;BME280;10238;49.556;10.956;2022-08-21T10:33:01;98269.09;;;26.92;100.00
20156;BME280;10238;49.556;10.956;2022-08-21T10:36:02;98271.31;;;27.27;98.49
20156;BME280;10238;49.556;10.956;2022-08-21T10:39:04;98268.41;;;27.48;95.18
20156;BME280;10238;49.556;10.956;2022-08-21T10:42:33;98261.78;;;27.86;92.15
20156;BME280;10238;49.556;10.956;2022-08-21T10:45:41;98265.28;;;27.76;81.02
20156;BME280;10238;49.556;10.956;2022-08-21T10:48:46;98265.00;;;27.73;87.04
20156;BME280;10238;49.556;10.956;2022-08-21T10:51:42;98261.31;;;27.47;82.97
20156;BME280;10238;49.556;10.956;2022-08-21T10:54:50;98257.94;;;27.82;87.55
20156;BME280;10238;49.556;10.956;2022-08-21T10:57:59;98242.84;;;28.46;82.39
20156;BME280;10238;49.556;10.956;2022-08-21T11:01:04;98245.63;;;29.01;80.66
20156;BME280;10238;49.556;10.956;2022-08-21T11:04:13;98243.41;;;29.28;73.68
20156;BME280;10238;49.556;10.956;2022-08-21T11:07:09;98242.34;;;29.09;70.01
20156;BME280;10238;49.556;10.956;2022-08-21T11:10:13;98234.06;;;29.44;74.37
20156;BME280;10238;49.556;10.956;2022-08-21T11:13:15;98229.97;;;30.05;73.45
20156;BME280;10238;49.556;10.956;2022-08-21T11:16:28;98232.47;;;30.50;70.07
20156;BME280;10238;49.556;10.956;2022-08-21T11:19:28;98226.22;;;30.83;66.93
20156;BME280;10238;49.556;10.956;2022-08-21T11:22:37;98234.13;;;31.18;67.34
20156;BME280;10238;49.556;10.956;2022-08-21T11:25:35;98223.81;;;31.58;62.44
20156;BME280;10238;49.556;10.956;2022-08-21T11:28:29;98219.19;;;31.82;59.17
20156;BME280;10238;49.556;10.956;2022-08-21T11:31:33;98214.97;;;32.08;61.33
20156;BME280;10238;49.556;10.956;2022-08-21T11:34:37;98210.91;;;32.42;56.71
20156;BME280;10238;49.556;10.956;2022-08-21T11:37:41;98204.63;;;32.74;60.38
20156;BME280;10238;49.556;10.956;2022-08-21T11:40:47;98206.47;;;32.97;58.83
20156;BME280;10238;49.556;10.956;2022-08-21T11:43:42;98203.81;;;33.05;55.65
20156;BME280;10238;49.556;10.956;2022-08-21T11:46:37;98196.91;;;33.22;55.02
20156;BME280;10238;49.556;10.956;2022-08-21T11:52:43;98191.03;;;33.55;51.23
20156;BME280;10238;49.556;10.956;2022-08-21T11:55:39;98188.59;;;33.67;52.03
20156;BME280;10238;49.556;10.956;2022-08-21T11:58:35;98183.25;;;33.84;50.42
20156;BME280;10238;49.556;10.956;2022-08-21T12:01:30;98175.91;;;33.93;49.72
20156;BME280;10238;49.556;10.956;2022-08-21T12:04:29;98177.44;;;33.99;50.92
20156;BME280;10238;49.556;10.956;2022-08-21T12:07:32;98172.22;;;33.98;51.42
20156;BME280;10238;49.556;10.956;2022-08-21T12:10:32;98171.97;;;34.21;49.01
20156;BME280;10238;49.556;10.956;2022-08-21T12:13:26;98169.06;;;34.40;44.89
20156;BME280;10238;49.556;10.956;2022-08-21T12:16:33;98168.94;;;34.45;47.39
20156;BME280;10238;49.556;10.956;2022-08-21T12:19:32;98167.13;;;34.62;48.10
20156;BME280;10238;49.556;10.956;2022-08-21T12:22:22;98169.78;;;34.76;44.75
20156;BME280;10238;49.556;10.956;2022-08-21T12:25:24;98163.53;;;34.84;41.14
20156;BME280;10238;49.556;10.956;2022-08-21T12:28:20;98157.16;;;34.83;42.74
20156;BME280;10238;49.556;10.956;2022-08-21T12:31:25;98154.16;;;34.93;46.33
20156;BME280;10238;49.556;10.956;2022-08-21T12:34:16;98155.38;;;35.10;43.31
20156;BME280;10238;49.556;10.956;2022-08-21T12:37:17;98157.19;;;35.14;41.32
20156;BME280;10238;49.556;10.956;2022-08-21T12:40:13;98156.88;;;35.16;42.77
20156;BME280;10238;49.556;10.956;2022-08-21T12:43:14;98151.88;;;35.18;41.04
20156;BME280;10238;49.556;10.956;2022-08-21T12:46:05;98156.88;;;35.16;41.27
20156;BME280;10238;49.556;10.956;2022-08-21T12:48:59;98162.28;;;35.21;41.07
20156;BME280;10238;49.556;10.956;2022-08-21T12:52:03;98146.34;;;35.18;40.94
20156;BME280;10238;49.556;10.956;2022-08-21T12:54:55;98144.19;;;35.15;46.55
20156;BME280;10238;49.556;10.956;2022-08-21T12:57:44;98140.50;;;35.19;41.65
20156;BME280;10238;49.556;10.956;2022-08-21T13:00:34;98142.88;;;35.04;41.32
20156;BME280;10238;49.556;10.956;2022-08-21T13:03:24;98134.00;;;35.24;42.16
20156;BME280;10238;49.556;10.956;2022-08-21T13:06:17;98132.28;;;35.36;41.96
20156;BME280;10238;49.556;10.956;2022-08-21T13:09:13;98127.38;;;35.33;40.89
20156;BME280;10238;49.556;10.956;2022-08-21T13:12:07;98139.38;;;35.29;39.92
20156;BME280;10238;49.556;10.956;2022-08-21T13:15:00;98131.94;;;34.98;41.71
20156;BME280;10238;49.556;10.956;2022-08-21T13:17:57;98133.59;;;35.08;42.03
20156;BME280;10238;49.556;10.956;2022-08-21T13:21:06;98119.03;;;35.25;42.12
20156;BME280;10238;49.556;10.956;2022-08-21T13:24:15;98118.28;;;35.33;42.55
20156;BME280;10238;49.556;10.956;2022-08-21T13:27:29;98115.72;;;35.45;40.88
20156;BME280;10238;49.556;10.956;2022-08-21T13:30:22;98118.34;;;35.58;40.94
20156;BME280;10238;49.556;10.956;2022-08-21T13:33:13;98110.56;;;35.60;40.40
20156;BME280;10238;49.556;10.956;2022-08-21T13:36:07;98109.09;;;35.63;40.01
20156;BME280;10238;49.556;10.956;2022-08-21T13:38:58;98105.34;;;35.67;41.49
20156;BME280;10238;49.556;10.956;2022-08-21T13:41:56;98101.31;;;35.73;41.50
20156;BME280;10238;49.556;10.956;2022-08-21T13:44:53;98104.06;;;35.65;42.17
20156;BME280;10238;49.556;10.956;2022-08-21T13:47:46;98107.72;;;35.35;40.42
20156;BME280;10238;49.556;10.956;2022-08-21T13:50:38;98110.50;;;35.43;40.64
20156;BME280;10238;49.556;10.956;2022-08-21T13:53:31;98105.16;;;35.47;40.31
20156;BME280;10238;49.556;10.956;2022-08-21T13:56:28;98103.34;;;35.42;39.41
20156;BME280;10238;49.556;10.956;2022-08-21T13:59:27;98099.16;;;35.53;42.44
20156;BME280;10238;49.556;10.956;2022-08-21T14:02:20;98101.94;;;35.62;39.67
20156;BME280;10238;49.556;10.956;2022-08-21T14:05:21;98094.16;;;35.72;40.04
20156;BME280;10238;49.556;10.956;2022-08-21T14:08:22;98096.25;;;35.75;40.66
20156;BME280;10238;49.556;10.956;2022-08-21T14:11:17;98101.44;;;35.68;38.81
20156;BME280;10238;49.556;10.956;2022-08-21T14:14:20;98102.94;;;35.27;40.24
20156;BME280;10238;49.556;10.956;2022-08-21T14:17:27;98101.13;;;35.14;41.36
20156;BME280;10238;49.556;10.956;2022-08-21T14:20:31;98100.34;;;35.30;41.16
20156;BME280;10238;49.556;10.956;2022-08-21T14:23:25;98091.31;;;35.38;39.18
20156;BME280;10238;49.556;10.956;2022-08-21T14:26:17;98098.31;;;35.36;41.22
20156;BME280;10238;49.556;10.956;2022-08-21T14:29:09;98095.97;;;35.29;39.00
20156;BME280;10238;49.556;10.956;2022-08-21T14:32:09;98087.63;;;35.21;40.52
20156;BME280;10238;49.556;10.956;2022-08-21T14:35:14;98082.25;;;35.16;37.91
20156;BME280;10238;49.556;10.956;2022-08-21T14:38:15;98077.00;;;35.06;40.70
20156;BME280;10238;49.556;10.956;2022-08-21T14:41:15;98068.91;;;35.09;41.98
20156;BME280;10238;49.556;10.956;2022-08-21T14:44:07;98074.28;;;35.14;38.79
20156;BME280;10238;49.556;10.956;2022-08-21T14:46:58;98081.88;;;35.00;38.69
20156;BME280;10238;49.556;10.956;2022-08-21T14:49:47;98068.38;;;34.98;39.57
20156;BME280;10238;49.556;10.956;2022-08-21T14:52:39;98065.09;;;34.96;39.65
20156;BME280;10238;49.556;10.956;2022-08-21T14:55:28;98067.53;;;34.98;38.49
20156;BME280;10238;49.556;10.956;2022-08-21T14:58:17;98058.63;;;35.01;39.72
20156;BME280;10238;49.556;10.956;2022-08-21T15:01:09;98061.91;;;35.12;40.12
20156;BME280;10238;49.556;10.956;2022-08-21T15:04:00;98067.63;;;35.15;39.03
20156;BME280;10238;49.556;10.956;2022-08-21T15:06:49;98049.06;;;35.16;40.65
20156;BME280;10238;49.556;10.956;2022-08-21T15:09:40;98048.44;;;35.19;38.41